createdAt,value
2018-01-12T00:00:59.590Z,3.90
2018-01-12T00:03:27.867Z,3.90
2018-01-12T00:05:56.147Z,3.90
2018-01-12T00:08:24.396Z,3.80
2018-01-12T00:10:51.984Z,3.80
2018-01-12T00:13:20.239Z,3.80
2018-01-12T00:15:47.721Z,3.80
2018-01-12T00:18:15.995Z,3.70
2018-01-12T00:20:44.254Z,3.80
2018-01-12T00:23:11.737Z,3.80
2018-01-12T00:25:39.295Z,3.70
2018-01-12T00:28:10.014Z,3.70
2018-01-12T00:30:38.283Z,3.70
2018-01-12T00:33:05.863Z,3.70
2018-01-12T00:35:33.366Z,3.70
2018-01-12T00:38:00.846Z,3.70
2018-01-12T00:40:28.346Z,3.70
2018-01-12T00:42:55.835Z,3.70
2018-01-12T00:45:23.331Z,3.80
2018-01-12T00:47:50.816Z,3.70
2018-01-12T00:50:18.308Z,3.70
2018-01-12T00:52:45.797Z,3.70
2018-01-12T00:55:13.302Z,3.70
2018-01-12T00:57:40.801Z,3.70
2018-01-12T01:00:08.406Z,3.70
2018-01-12T01:02:36.677Z,3.70
2018-01-12T01:05:04.941Z,3.70
2018-01-12T01:07:32.453Z,3.70
2018-01-12T01:09:59.953Z,3.70
2018-01-12T01:12:27.531Z,3.70
2018-01-12T01:14:55.788Z,3.70
2018-01-12T01:17:24.100Z,3.70
2018-01-12T01:19:51.608Z,3.60
2018-01-12T01:22:19.120Z,3.60
2018-01-12T01:24:47.286Z,3.60
2018-01-12T01:27:14.847Z,3.60
2018-01-12T01:29:42.400Z,3.60
2018-01-12T01:32:09.963Z,3.50
2018-01-12T01:34:37.484Z,3.50
2018-01-12T01:37:05.075Z,3.50
2018-01-12T01:39:33.358Z,3.50
2018-01-12T01:42:00.916Z,3.50
2018-01-12T01:44:29.195Z,3.50
2018-01-12T01:46:56.765Z,3.40
2018-01-12T01:49:24.240Z,3.50
2018-01-12T01:51:51.773Z,3.50
2018-01-12T01:54:19.274Z,3.40
2018-01-12T01:56:46.889Z,3.40
2018-01-12T01:59:14.452Z,3.40
2018-01-12T02:01:42.010Z,3.40
2018-01-12T02:04:09.567Z,3.40
2018-01-12T02:06:37.134Z,3.40
2018-01-12T02:09:04.693Z,3.40
2018-01-12T02:11:32.244Z,3.30
2018-01-12T02:14:00.507Z,3.40
2018-01-12T02:16:28.780Z,3.40
2018-01-12T02:18:57.043Z,3.40
2018-01-12T02:21:24.632Z,3.40
2018-01-12T02:23:52.908Z,3.30
2018-01-12T02:26:21.183Z,3.30
2018-01-12T02:28:49.454Z,3.30
2018-01-12T02:31:17.843Z,3.30
2018-01-12T02:33:46.112Z,3.30
2018-01-12T02:36:13.612Z,3.20
2018-01-12T02:38:41.103Z,3.30
2018-01-12T02:41:08.609Z,3.30
2018-01-12T02:43:36.147Z,3.30
2018-01-12T02:46:04.434Z,3.20
2018-01-12T02:48:32.708Z,3.20
2018-01-12T02:51:00.261Z,3.20
2018-01-12T02:53:28.537Z,3.20
2018-01-12T02:55:56.032Z,3.20
2018-01-12T02:58:23.528Z,3.20
2018-01-12T03:00:51.117Z,3.20
2018-01-12T03:03:19.392Z,3.20
2018-01-12T03:05:47.675Z,3.20
2018-01-12T03:08:15.164Z,3.20
2018-01-12T03:10:42.692Z,3.20
2018-01-12T03:13:10.242Z,3.20
2018-01-12T03:15:38.543Z,3.10
2018-01-12T03:18:06.099Z,3.20
2018-01-12T03:20:33.659Z,3.20
2018-01-12T03:23:01.152Z,3.10
2018-01-12T03:25:28.759Z,3.10
2018-01-12T03:27:57.012Z,3.10
2018-01-12T03:30:24.598Z,3.10
2018-01-12T03:32:52.876Z,3.10
2018-01-12T03:35:20.382Z,3.10
2018-01-12T03:37:47.910Z,3.10
2018-01-12T03:40:15.408Z,3.10
2018-01-12T03:42:43.022Z,3.10
2018-01-12T03:45:10.542Z,3.10
2018-01-12T03:47:38.140Z,3.00
2018-01-12T03:50:05.629Z,3.00
2018-01-12T03:52:33.148Z,3.00
2018-01-12T03:55:01.408Z,2.90
2018-01-12T03:57:29.680Z,2.90
2018-01-12T03:59:57.172Z,2.90
2018-01-12T04:02:24.682Z,2.90
2018-01-12T04:04:52.195Z,3.00
2018-01-12T04:07:19.737Z,3.00
2018-01-12T04:09:48.000Z,3.00
2018-01-12T04:12:16.282Z,3.00
2018-01-12T04:14:44.572Z,2.90
2018-01-12T04:17:12.131Z,2.90
2018-01-12T04:19:39.691Z,2.90
2018-01-12T04:22:07.250Z,2.90
2018-01-12T04:24:34.752Z,2.90
2018-01-12T04:27:02.284Z,2.90
2018-01-12T04:29:29.793Z,2.90
2018-01-12T04:31:57.297Z,2.90
2018-01-12T04:34:24.841Z,2.90
2018-01-12T04:36:52.454Z,3.00
2018-01-12T04:39:19.954Z,2.90
2018-01-12T04:41:48.341Z,2.80
2018-01-12T04:44:15.903Z,2.80
2018-01-12T04:46:43.412Z,2.80
2018-01-12T04:49:11.015Z,2.80
2018-01-12T04:51:38.533Z,2.70
2018-01-12T04:54:06.046Z,2.70
2018-01-12T04:56:33.562Z,2.70
2018-01-12T04:59:01.161Z,2.70
2018-01-12T05:01:28.676Z,2.70
2018-01-12T05:03:56.188Z,2.70
2018-01-12T05:06:23.688Z,2.70
2018-01-12T05:08:51.211Z,2.70
2018-01-12T05:11:18.763Z,2.70
2018-01-12T05:13:46.264Z,2.70
2018-01-12T05:16:13.886Z,2.80
2018-01-12T05:18:41.396Z,2.70
2018-01-12T05:21:09.019Z,2.70
2018-01-12T05:23:36.648Z,2.70
2018-01-12T05:26:04.156Z,2.70
2018-01-12T05:28:31.657Z,2.70
2018-01-12T05:30:59.220Z,2.70
2018-01-12T05:33:27.505Z,2.70
2018-01-12T05:35:55.000Z,2.70
2018-01-12T05:38:22.537Z,2.70
2018-01-12T05:40:50.028Z,2.70
2018-01-12T05:43:17.639Z,2.70
2018-01-12T05:45:45.163Z,2.70
2018-01-12T05:48:12.747Z,2.60
2018-01-12T05:50:41.016Z,2.60
2018-01-12T05:53:09.303Z,2.60
2018-01-12T05:55:36.812Z,2.60
2018-01-12T05:58:04.313Z,2.60
2018-01-12T06:00:32.599Z,2.60
2018-01-12T06:03:12.857Z,2.60
2018-01-12T06:05:52.960Z,2.60
2018-01-12T06:08:20.461Z,2.60
2018-01-12T06:10:48.752Z,2.60
2018-01-12T06:13:16.260Z,2.60
2018-01-12T06:15:44.534Z,2.60
2018-01-12T06:18:12.040Z,2.60
2018-01-12T06:20:39.604Z,2.50
2018-01-12T06:23:07.184Z,2.50
2018-01-12T06:25:35.428Z,2.50
2018-01-12T06:28:03.710Z,2.50
2018-01-12T06:30:31.271Z,2.50
2018-01-12T06:32:58.840Z,2.60
2018-01-12T06:35:26.391Z,2.60
2018-01-12T06:37:53.952Z,2.50
2018-01-12T06:40:21.513Z,2.60
2018-01-12T06:42:49.076Z,2.50
2018-01-12T06:45:16.633Z,2.60
2018-01-12T06:47:44.921Z,2.50
2018-01-12T06:50:12.448Z,2.50
2018-01-12T06:52:40.702Z,2.50
2018-01-12T06:55:08.211Z,2.50
2018-01-12T06:57:35.730Z,2.50
2018-01-12T07:00:03.225Z,2.50
2018-01-12T07:02:30.716Z,2.80
2018-01-12T07:04:58.332Z,4.20
2018-01-12T07:07:26.593Z,3.70
2018-01-12T07:09:54.179Z,3.70
2018-01-12T07:12:21.774Z,3.40
2018-01-12T07:14:49.278Z,3.10
2018-01-12T07:17:18.382Z,2.70
2018-01-12T07:19:47.648Z,2.70
2018-01-12T07:22:21.841Z,2.60
2018-01-12T07:24:49.397Z,2.60
2018-01-12T07:27:16.941Z,2.50
2018-01-12T07:29:44.487Z,2.50
2018-01-12T07:32:12.131Z,2.60
2018-01-12T07:34:39.784Z,2.60
2018-01-12T07:37:07.406Z,2.60
2018-01-12T07:39:35.006Z,2.60
2018-01-12T07:42:03.319Z,2.60
2018-01-12T07:44:30.904Z,2.60
2018-01-12T07:46:58.575Z,2.60
2018-01-12T07:49:26.108Z,2.50
2018-01-12T07:51:53.640Z,2.50
2018-01-12T07:54:21.152Z,2.50
2018-01-12T07:56:48.687Z,2.50
2018-01-12T07:59:16.235Z,2.50
2018-01-12T08:01:49.348Z,2.60
2018-01-12T08:04:16.847Z,2.60
2018-01-12T08:06:45.145Z,2.50
2018-01-12T08:09:12.667Z,2.50
2018-01-12T08:11:40.167Z,2.50
2018-01-12T08:14:07.693Z,2.50
2018-01-12T08:16:35.305Z,2.50
2018-01-12T08:19:02.802Z,2.50
2018-01-12T08:21:30.496Z,2.50
2018-01-12T08:23:58.424Z,2.40
2018-01-12T08:26:25.932Z,2.40
2018-01-12T08:28:53.444Z,2.40
2018-01-12T08:31:20.965Z,2.40
2018-01-12T08:33:48.504Z,2.50
2018-01-12T08:36:16.760Z,2.50
2018-01-12T08:38:45.062Z,2.50
2018-01-12T08:41:12.558Z,2.50
2018-01-12T08:43:40.067Z,2.50
2018-01-12T08:46:08.457Z,2.50
2018-01-12T08:48:35.952Z,2.50
2018-01-12T08:51:03.450Z,2.50
2018-01-12T08:53:30.968Z,2.50
2018-01-12T08:55:58.472Z,2.50
2018-01-12T08:58:26.768Z,2.50
2018-01-12T09:00:55.043Z,2.40
2018-01-12T09:03:23.299Z,2.40
2018-01-12T09:05:51.567Z,2.50
2018-01-12T09:08:19.160Z,2.50
2018-01-12T09:10:46.670Z,2.50
2018-01-12T09:13:26.062Z,2.50
2018-01-12T09:16:02.484Z,2.50
2018-01-12T09:18:31.925Z,2.50
2018-01-12T09:23:56.939Z,2.40
2018-01-12T09:26:25.194Z,2.50
2018-01-12T09:28:52.691Z,2.50
2018-01-12T09:31:27.012Z,2.50
2018-01-12T09:33:54.562Z,2.50
2018-01-12T09:36:22.114Z,2.50
2018-01-12T09:38:52.639Z,2.50
2018-01-12T09:41:20.903Z,2.50
2018-01-12T09:43:49.198Z,2.50
2018-01-12T09:46:17.602Z,2.60
2018-01-12T09:48:50.759Z,2.60
2018-01-12T09:51:19.056Z,2.60
2018-01-12T09:53:47.398Z,2.60
2018-01-12T09:56:14.895Z,2.60
2018-01-12T09:58:45.267Z,2.60
2018-01-12T10:01:29.661Z,2.70
2018-01-12T10:03:57.244Z,2.70
2018-01-12T10:06:24.796Z,2.60
2018-01-12T10:08:58.978Z,2.60
2018-01-12T10:11:27.248Z,2.60
2018-01-12T10:13:55.516Z,2.60
2018-01-12T10:16:23.109Z,2.60
2018-01-12T10:18:53.519Z,2.60
2018-01-12T10:21:33.595Z,2.60
2018-01-12T10:24:01.161Z,2.60
2018-01-12T10:26:28.704Z,2.60
2018-01-12T10:29:06.709Z,2.70
2018-01-12T10:34:43.618Z,2.70
2018-01-12T10:37:11.123Z,2.60
2018-01-12T10:39:50.507Z,2.60
2018-01-12T10:42:17.995Z,2.70
2018-01-12T10:44:45.531Z,2.70
2018-01-12T10:47:25.779Z,2.70
2018-01-12T10:53:12.773Z,2.70
2018-01-12T10:55:40.281Z,2.70
2018-01-12T10:58:07.798Z,2.70
2018-01-12T11:00:36.093Z,2.60
2018-01-12T11:03:04.377Z,2.60
2018-01-12T11:05:31.972Z,2.60
2018-01-12T11:07:59.517Z,2.60
2018-01-12T11:10:27.067Z,2.70
2018-01-12T11:12:55.585Z,2.70
2018-01-12T11:15:23.114Z,2.70
2018-01-12T11:17:50.640Z,2.70
2018-01-12T11:20:18.943Z,2.60
2018-01-12T11:22:46.504Z,2.60
2018-01-12T11:25:14.059Z,2.60
2018-01-12T11:27:41.618Z,2.70
2018-01-12T11:30:09.149Z,2.70
2018-01-12T11:32:37.468Z,2.60
2018-01-12T11:35:05.017Z,2.60
2018-01-12T11:37:32.564Z,2.60
2018-01-12T11:40:00.098Z,2.70
2018-01-12T11:42:27.624Z,2.60
2018-01-12T11:44:55.153Z,2.60
2018-01-12T11:47:22.691Z,2.60
2018-01-12T11:49:50.959Z,2.70
2018-01-12T11:52:19.263Z,2.70
2018-01-12T11:54:46.784Z,2.70
2018-01-12T11:57:14.663Z,2.70
2018-01-12T11:59:42.958Z,2.70
2018-01-12T12:02:11.366Z,2.70
2018-01-12T12:04:38.846Z,2.70
2018-01-12T12:07:06.372Z,2.70
2018-01-12T12:09:33.925Z,2.80
2018-01-12T12:12:01.448Z,2.80
2018-01-12T12:14:29.055Z,2.80
2018-01-12T12:16:56.604Z,2.80
2018-01-12T12:19:24.173Z,2.80
2018-01-12T12:21:51.707Z,2.80
2018-01-12T12:24:19.984Z,2.70
2018-01-12T12:26:47.503Z,2.70
2018-01-12T12:29:15.026Z,2.80
2018-01-12T12:31:42.564Z,2.70
2018-01-12T12:34:10.080Z,2.70
2018-01-12T12:36:37.596Z,2.70
2018-01-12T12:39:05.116Z,2.70
2018-01-12T12:41:32.688Z,2.70
2018-01-12T12:44:01.106Z,2.70
2018-01-12T12:46:28.656Z,2.70
2018-01-12T12:48:57.135Z,2.70
2018-01-12T12:51:24.664Z,2.70
2018-01-12T12:53:52.952Z,2.70
2018-01-12T12:56:20.534Z,2.70
2018-01-12T12:58:48.074Z,2.70
2018-01-12T13:01:15.583Z,2.70
2018-01-12T13:03:43.096Z,2.70
2018-01-12T13:06:10.666Z,2.80
2018-01-12T13:08:38.231Z,2.70
2018-01-12T13:11:05.740Z,2.70
2018-01-12T13:13:33.264Z,2.70
2018-01-12T13:16:00.787Z,2.80
2018-01-12T13:18:29.068Z,2.80
2018-01-12T13:20:56.629Z,2.80
2018-01-12T13:23:24.147Z,2.80
2018-01-12T13:25:51.770Z,2.80
2018-01-12T13:28:19.312Z,2.80
2018-01-12T13:30:46.876Z,2.80
2018-01-12T13:33:14.440Z,2.80
2018-01-12T13:35:41.955Z,2.80
2018-01-12T13:38:09.518Z,2.80
2018-01-12T13:40:37.059Z,2.80
2018-01-12T13:43:04.596Z,2.80
2018-01-12T13:45:32.108Z,2.80
2018-01-12T13:48:00.400Z,2.70
2018-01-12T13:50:27.964Z,2.80
2018-01-12T13:52:55.538Z,2.80
2018-01-12T13:55:23.043Z,2.80
2018-01-12T13:57:50.598Z,2.70
2018-01-12T14:00:18.218Z,2.70
2018-01-12T14:02:45.722Z,2.70
2018-01-12T14:05:13.248Z,2.70
2018-01-12T14:07:40.760Z,2.70
2018-01-12T14:10:09.074Z,2.70
2018-01-12T14:12:36.615Z,2.70
2018-01-12T14:15:04.176Z,2.70
2018-01-12T14:17:31.797Z,2.70
2018-01-12T14:19:59.317Z,2.70
2018-01-12T14:22:26.837Z,2.70
2018-01-12T14:24:55.119Z,2.60
2018-01-12T14:27:23.507Z,2.60
2018-01-12T14:29:51.067Z,2.60
2018-01-12T14:32:18.635Z,2.70
2018-01-12T14:34:46.160Z,2.70
2018-01-12T14:37:14.491Z,2.70
2018-01-12T14:39:42.276Z,2.70
2018-01-12T14:42:09.816Z,2.70
2018-01-12T14:44:37.319Z,2.70
2018-01-12T14:47:05.635Z,2.70
2018-01-12T14:49:33.161Z,2.70
2018-01-12T14:52:01.506Z,2.70
2018-01-12T14:54:29.030Z,2.70
2018-01-12T14:56:56.572Z,2.60
2018-01-12T14:59:24.864Z,2.70
2018-01-12T15:01:52.381Z,2.60
2018-01-12T15:04:19.912Z,2.70
2018-01-12T15:06:47.419Z,2.70
2018-01-12T15:09:15.692Z,2.70
2018-01-12T15:11:44.044Z,2.60
2018-01-12T15:14:11.576Z,2.60
2018-01-12T15:16:39.112Z,2.60
2018-01-12T15:19:06.677Z,2.60
2018-01-12T15:21:34.194Z,2.60
2018-01-12T15:24:02.508Z,2.60
2018-01-12T15:26:30.041Z,2.60
2018-01-12T15:28:58.356Z,2.60
2018-01-12T15:31:25.927Z,2.60
2018-01-12T15:33:53.571Z,2.60
2018-01-12T15:36:21.096Z,2.60
2018-01-12T15:38:49.376Z,2.60
2018-01-12T15:41:17.672Z,2.60
2018-01-12T15:43:45.241Z,2.60
2018-01-12T15:46:12.829Z,2.50
2018-01-12T15:48:40.464Z,2.50
2018-01-12T15:51:07.985Z,2.60
2018-01-12T15:53:35.488Z,2.60
2018-01-12T15:56:03.026Z,2.60
2018-01-12T15:58:30.603Z,2.60
2018-01-12T16:00:58.150Z,2.60
2018-01-12T16:03:25.741Z,2.60
2018-01-12T16:05:53.276Z,2.60
2018-01-12T16:08:20.942Z,2.60
2018-01-12T16:10:48.502Z,2.60
2018-01-12T16:13:17.076Z,2.50
2018-01-12T16:15:44.738Z,2.50
2018-01-12T16:18:12.268Z,2.50
2018-01-12T16:20:40.602Z,2.50
2018-01-12T16:23:08.100Z,2.50
2018-01-12T16:25:35.796Z,2.50
2018-01-12T16:28:04.162Z,2.50
2018-01-12T16:30:32.588Z,2.50
2018-01-12T16:33:00.183Z,2.50
2018-01-12T16:35:28.488Z,2.40
2018-01-12T16:37:56.098Z,2.40
2018-01-12T16:40:23.644Z,2.50
2018-01-12T16:42:51.216Z,2.40
2018-01-12T16:45:18.733Z,2.50
2018-01-12T16:47:46.437Z,2.50
2018-01-12T16:50:14.028Z,2.50
2018-01-12T16:52:42.769Z,2.50
2018-01-12T16:55:10.417Z,2.50
2018-01-12T16:57:37.924Z,2.50
2018-01-12T17:00:05.471Z,2.50
2018-01-12T17:02:33.015Z,2.50
2018-01-12T17:05:00.536Z,2.50
2018-01-12T17:07:28.058Z,2.40
2018-01-12T17:09:56.484Z,2.40
2018-01-12T17:12:23.997Z,2.50
2018-01-12T17:14:51.507Z,2.50
2018-01-12T17:17:19.958Z,2.50
2018-01-12T17:19:48.235Z,2.50
2018-01-12T17:22:16.541Z,2.50
2018-01-12T17:24:44.074Z,2.40
2018-01-12T17:27:11.599Z,2.50
2018-01-12T17:29:39.101Z,2.40
2018-01-12T17:32:06.635Z,2.40
2018-01-12T17:34:34.131Z,2.40
2018-01-12T17:37:01.690Z,2.30
2018-01-12T17:39:29.231Z,2.30
2018-01-12T17:41:57.504Z,2.40
2018-01-12T17:44:25.779Z,2.40
2018-01-12T17:46:54.079Z,2.30
2018-01-12T17:49:21.621Z,2.30
2018-01-12T17:51:49.143Z,2.40
2018-01-12T17:54:16.729Z,2.40
2018-01-12T17:56:45.053Z,2.70
2018-01-12T17:59:12.562Z,2.70
2018-01-12T18:01:40.868Z,2.70
2018-01-12T18:04:08.432Z,2.60
2018-01-12T18:06:35.988Z,2.70
2018-01-12T18:09:03.536Z,2.60
2018-01-12T18:11:31.064Z,2.50
2018-01-12T18:13:58.655Z,2.60
2018-01-12T18:16:27.413Z,2.50
2018-01-12T18:18:54.928Z,2.40
2018-01-12T18:21:22.661Z,2.40
2018-01-12T18:23:50.212Z,2.50
2018-01-12T18:26:18.507Z,2.50
2018-01-12T18:28:47.133Z,2.50
2018-01-12T18:31:14.867Z,2.50
2018-01-12T18:33:42.419Z,2.50
2018-01-12T18:36:11.027Z,2.70
2018-01-12T18:38:38.560Z,2.60
2018-01-12T18:41:06.959Z,2.50
2018-01-12T18:43:34.540Z,2.60
2018-01-12T18:46:04.540Z,2.50
2018-01-12T18:48:32.425Z,2.50
2018-01-12T18:50:59.948Z,2.50
2018-01-12T18:53:27.497Z,2.60
2018-01-12T18:55:55.052Z,2.60
2018-01-12T18:58:23.352Z,2.70
2018-01-12T19:00:50.898Z,2.70
2018-01-12T19:03:19.224Z,2.70
2018-01-12T19:05:46.750Z,2.70
2018-01-12T19:08:14.302Z,2.70
2018-01-12T19:10:42.545Z,2.70
2018-01-12T19:13:11.177Z,4.10
2018-01-12T19:15:38.749Z,4.10
2018-01-12T19:18:06.273Z,3.50
2018-01-12T19:20:33.807Z,3.20
2018-01-12T19:23:02.836Z,2.70
2018-01-12T19:25:30.378Z,2.70
2018-01-12T19:27:57.955Z,2.60
2018-01-12T19:30:25.474Z,2.50
2018-01-12T19:32:53.791Z,2.50
2018-01-12T19:35:21.312Z,2.50
2018-01-12T19:37:49.629Z,2.40
2018-01-12T19:40:17.162Z,2.40
2018-01-12T19:42:44.864Z,2.40
2018-01-12T19:45:12.397Z,2.40
2018-01-12T19:47:39.914Z,2.30
2018-01-12T19:50:07.455Z,2.30
2018-01-12T19:52:35.074Z,2.30
2018-01-12T19:55:02.637Z,2.30
2018-01-12T19:57:30.212Z,2.30
2018-01-12T19:59:57.997Z,2.30
2018-01-12T20:02:25.631Z,2.30
2018-01-12T20:04:54.014Z,2.20
2018-01-12T20:07:21.582Z,2.30
2018-01-12T20:09:49.120Z,2.30
2018-01-12T20:12:16.649Z,2.30
2018-01-12T20:14:44.195Z,2.30
2018-01-12T20:17:11.695Z,2.30
2018-01-12T20:19:39.224Z,2.30
2018-01-12T20:22:07.529Z,2.30
2018-01-12T20:24:35.102Z,2.30
2018-01-12T20:27:02.661Z,2.20
2018-01-12T20:29:30.228Z,2.20
2018-01-12T20:31:57.811Z,2.20
2018-01-12T20:34:25.322Z,2.10
2018-01-12T20:36:53.644Z,2.20
2018-01-12T20:39:21.164Z,2.20
2018-01-12T20:41:48.692Z,2.10
2018-01-12T20:44:16.218Z,2.10
2018-01-12T20:46:43.760Z,2.10
2018-01-12T20:49:11.271Z,2.10
2018-01-12T20:51:39.178Z,2.10
2018-01-12T20:54:07.460Z,2.00
2018-01-12T20:56:34.964Z,2.00
2018-01-12T20:59:02.829Z,2.00
2018-01-12T21:01:30.400Z,2.00
2018-01-12T21:03:59.419Z,1.90
2018-01-12T21:06:27.799Z,1.90
2018-01-12T21:08:56.127Z,1.90
2018-01-12T21:11:23.678Z,1.90
2018-01-12T21:13:51.246Z,1.90
2018-01-12T21:16:18.886Z,1.90
2018-01-12T21:18:46.389Z,1.90
2018-01-12T21:21:13.926Z,1.90
2018-01-12T21:23:41.432Z,1.90
2018-01-12T21:26:08.954Z,1.90
2018-01-12T21:28:36.564Z,1.90
2018-01-12T21:31:04.075Z,1.80
2018-01-12T21:33:31.605Z,1.80
2018-01-12T21:35:59.161Z,1.80
2018-01-12T21:38:26.688Z,1.80
2018-01-12T21:40:54.952Z,1.80
2018-01-12T21:43:23.248Z,1.80
2018-01-12T21:45:50.758Z,1.80
2018-01-12T21:48:18.284Z,1.90
2018-01-12T21:50:45.804Z,1.90
2018-01-12T21:53:13.305Z,1.90
2018-01-12T21:55:40.812Z,1.90
2018-01-12T21:58:08.339Z,1.90
2018-01-12T22:00:35.832Z,1.80
2018-01-12T22:03:04.109Z,1.80
2018-01-12T22:05:31.654Z,1.80
2018-01-12T22:07:59.160Z,1.90
2018-01-12T22:10:26.684Z,2.00
2018-01-12T22:12:54.352Z,2.60
2018-01-12T22:15:22.632Z,3.10
2018-01-12T22:17:50.910Z,2.80
2018-01-12T22:20:19.200Z,2.50
2018-01-12T22:22:46.712Z,2.50
2018-01-12T22:25:14.274Z,2.30
2018-01-12T22:27:41.804Z,2.20
2018-01-12T22:30:09.312Z,2.10
2018-01-12T22:32:36.843Z,2.00
2018-01-12T22:35:04.406Z,2.00
2018-01-12T22:37:31.981Z,1.90
2018-01-12T22:39:59.521Z,1.90
2018-01-12T22:42:27.059Z,1.90
2018-01-12T22:44:54.567Z,1.80
2018-01-12T22:47:22.266Z,1.80
2018-01-12T22:49:49.831Z,1.80
2018-01-12T22:52:17.350Z,1.80
2018-01-12T22:54:45.034Z,1.80
2018-01-12T22:57:12.647Z,1.80
2018-01-12T22:59:40.172Z,1.70
2018-01-12T23:02:07.672Z,1.70
2018-01-12T23:04:35.192Z,1.70
2018-01-12T23:07:02.776Z,1.70
2018-01-12T23:09:30.275Z,1.70
2018-01-12T23:11:57.803Z,1.70
2018-01-12T23:14:25.366Z,1.70
2018-01-12T23:16:52.871Z,1.80
2018-01-12T23:19:20.395Z,1.70
2018-01-12T23:21:47.895Z,1.70
2018-01-12T23:24:15.400Z,1.60
2018-01-12T23:26:42.934Z,1.60
2018-01-12T23:29:10.448Z,1.60
2018-01-12T23:31:38.728Z,1.60
2018-01-12T23:34:07.022Z,1.50
2018-01-12T23:36:34.532Z,1.50
2018-01-12T23:39:02.031Z,1.50
2018-01-12T23:41:30.338Z,1.60
2018-01-12T23:43:57.879Z,1.60
2018-01-12T23:46:25.434Z,1.50
2018-01-12T23:48:52.955Z,1.50
2018-01-12T23:51:20.552Z,1.50
2018-01-12T23:53:48.138Z,1.50
2018-01-12T23:56:15.680Z,1.50
2018-01-12T23:58:43.179Z,1.60
